sensor_id;sensor_type;location;lat;lon;timestamp;P1;durP1;ratioP1;P2;durP2;ratioP2
20230;SDS011;10274;49.022;9.338;2023-04-16T00:02:03;6.43;;;4.60;;
20230;SDS011;10274;49.022;9.338;2023-04-16T00:04:30;8.50;;;5.87;;
20230;SDS011;10274;49.022;9.338;2023-04-16T00:06:57;7.57;;;5.67;;
20230;SDS011;10274;49.022;9.338;2023-04-16T00:09:25;7.77;;;6.00;;
20230;SDS011;10274;49.022;9.338;2023-04-16T00:11:51;6.37;;;4.67;;
20230;SDS011;10274;49.022;9.338;2023-04-16T00:14:18;7.03;;;5.47;;
20230;SDS011;10274;49.022;9.338;2023-04-16T00:16:45;8.07;;;5.30;;
20230;SDS011;10274;49.022;9.338;2023-04-16T00:19:11;7.07;;;5.70;;
20230;SDS011;10274;49.022;9.338;2023-04-16T00:21:38;6.70;;;5.07;;
20230;SDS011;10274;49.022;9.338;2023-04-16T00:24:05;7.63;;;5.17;;
20230;SDS011;10274;49.022;9.338;2023-04-16T00:26:33;8.47;;;5.27;;
20230;SDS011;10274;49.022;9.338;2023-04-16T00:29:00;8.03;;;5.73;;
20230;SDS011;10274;49.022;9.338;2023-04-16T00:31:27;7.50;;;5.30;;
20230;SDS011;10274;49.022;9.338;2023-04-16T00:33:54;5.93;;;4.93;;
20230;SDS011;10274;49.022;9.338;2023-04-16T00:36:21;6.77;;;5.00;;
20230;SDS011;10274;49.022;9.338;2023-04-16T00:38:48;6.20;;;4.70;;
20230;SDS011;10274;49.022;9.338;2023-04-16T00:41:15;7.23;;;5.47;;
20230;SDS011;10274;49.022;9.338;2023-04-16T00:43:43;6.40;;;5.00;;
20230;SDS011;10274;49.022;9.338;2023-04-16T00:46:10;8.40;;;5.97;;
20230;SDS011;10274;49.022;9.338;2023-04-16T00:48:37;7.73;;;5.63;;
20230;SDS011;10274;49.022;9.338;2023-04-16T00:51:06;7.50;;;5.23;;
20230;SDS011;10274;49.022;9.338;2023-04-16T00:53:33;5.73;;;4.37;;
20230;SDS011;10274;49.022;9.338;2023-04-16T00:56:01;5.87;;;4.53;;
20230;SDS011;10274;49.022;9.338;2023-04-16T00:58:28;7.43;;;4.97;;
20230;SDS011;10274;49.022;9.338;2023-04-16T01:00:57;6.77;;;4.80;;
20230;SDS011;10274;49.022;9.338;2023-04-16T01:03:24;6.73;;;4.93;;
20230;SDS011;10274;49.022;9.338;2023-04-16T01:06:00;7.50;;;5.27;;
20230;SDS011;10274;49.022;9.338;2023-04-16T01:08:26;6.73;;;5.37;;
20230;SDS011;10274;49.022;9.338;2023-04-16T01:10:53;7.50;;;4.87;;
20230;SDS011;10274;49.022;9.338;2023-04-16T01:13:20;7.13;;;4.93;;
20230;SDS011;10274;49.022;9.338;2023-04-16T01:15:47;6.27;;;4.50;;
20230;SDS011;10274;49.022;9.338;2023-04-16T01:18:15;6.53;;;4.23;;
20230;SDS011;10274;49.022;9.338;2023-04-16T01:20:43;5.13;;;4.07;;
20230;SDS011;10274;49.022;9.338;2023-04-16T01:23:10;4.47;;;3.97;;
20230;SDS011;10274;49.022;9.338;2023-04-16T01:25:37;6.47;;;4.47;;
20230;SDS011;10274;49.022;9.338;2023-04-16T01:28:04;6.33;;;4.13;;
20230;SDS011;10274;49.022;9.338;2023-04-16T01:30:30;5.63;;;4.10;;
20230;SDS011;10274;49.022;9.338;2023-04-16T01:32:57;4.67;;;3.87;;
20230;SDS011;10274;49.022;9.338;2023-04-16T01:35:25;6.13;;;4.80;;
20230;SDS011;10274;49.022;9.338;2023-04-16T01:37:53;5.73;;;4.27;;
20230;SDS011;10274;49.022;9.338;2023-04-16T01:40:20;5.80;;;4.10;;
20230;SDS011;10274;49.022;9.338;2023-04-16T01:42:47;5.50;;;3.50;;
20230;SDS011;10274;49.022;9.338;2023-04-16T01:45:13;6.47;;;4.03;;
20230;SDS011;10274;49.022;9.338;2023-04-16T01:47:40;4.97;;;3.83;;
20230;SDS011;10274;49.022;9.338;2023-04-16T01:50:07;5.43;;;3.70;;
20230;SDS011;10274;49.022;9.338;2023-04-16T01:52:35;6.50;;;4.37;;
20230;SDS011;10274;49.022;9.338;2023-04-16T01:55:03;6.10;;;4.17;;
20230;SDS011;10274;49.022;9.338;2023-04-16T01:57:30;4.07;;;3.20;;
20230;SDS011;10274;49.022;9.338;2023-04-16T01:59:57;4.10;;;3.30;;
20230;SDS011;10274;49.022;9.338;2023-04-16T02:02:23;4.93;;;4.43;;
20230;SDS011;10274;49.022;9.338;2023-04-16T02:04:53;4.20;;;3.37;;
20230;SDS011;10274;49.022;9.338;2023-04-16T02:07:20;5.47;;;3.83;;
20230;SDS011;10274;49.022;9.338;2023-04-16T02:09:47;4.97;;;3.53;;
20230;SDS011;10274;49.022;9.338;2023-04-16T02:12:16;5.13;;;4.63;;
20230;SDS011;10274;49.022;9.338;2023-04-16T02:14:43;5.27;;;4.40;;
20230;SDS011;10274;49.022;9.338;2023-04-16T02:17:10;4.13;;;3.73;;
20230;SDS011;10274;49.022;9.338;2023-04-16T02:19:36;5.17;;;3.80;;
20230;SDS011;10274;49.022;9.338;2023-04-16T02:22:03;5.80;;;4.03;;
20230;SDS011;10274;49.022;9.338;2023-04-16T02:24:30;5.20;;;4.40;;
20230;SDS011;10274;49.022;9.338;2023-04-16T02:26:56;4.63;;;4.00;;
20230;SDS011;10274;49.022;9.338;2023-04-16T02:29:24;6.87;;;4.17;;
20230;SDS011;10274;49.022;9.338;2023-04-16T02:31:51;6.53;;;4.40;;
20230;SDS011;10274;49.022;9.338;2023-04-16T02:34:17;7.83;;;4.47;;
20230;SDS011;10274;49.022;9.338;2023-04-16T02:36:44;5.33;;;3.97;;
20230;SDS011;10274;49.022;9.338;2023-04-16T02:39:11;4.57;;;3.73;;
20230;SDS011;10274;49.022;9.338;2023-04-16T02:41:38;5.13;;;3.80;;
20230;SDS011;10274;49.022;9.338;2023-04-16T02:44:05;6.00;;;4.20;;
20230;SDS011;10274;49.022;9.338;2023-04-16T02:46:33;5.17;;;3.93;;
20230;SDS011;10274;49.022;9.338;2023-04-16T02:48:59;5.73;;;3.90;;
20230;SDS011;10274;49.022;9.338;2023-04-16T02:51:26;6.27;;;4.33;;
20230;SDS011;10274;49.022;9.338;2023-04-16T02:53:53;5.30;;;4.37;;
20230;SDS011;10274;49.022;9.338;2023-04-16T02:56:19;6.90;;;4.30;;
20230;SDS011;10274;49.022;9.338;2023-04-16T02:58:46;6.13;;;3.67;;
20230;SDS011;10274;49.022;9.338;2023-04-16T03:01:13;5.17;;;4.50;;
20230;SDS011;10274;49.022;9.338;2023-04-16T03:03:41;5.20;;;4.33;;
20230;SDS011;10274;49.022;9.338;2023-04-16T03:06:07;4.77;;;3.80;;
20230;SDS011;10274;49.022;9.338;2023-04-16T03:08:34;7.73;;;4.77;;
20230;SDS011;10274;49.022;9.338;2023-04-16T03:11:00;7.23;;;4.90;;
20230;SDS011;10274;49.022;9.338;2023-04-16T03:13:27;6.43;;;4.10;;
20230;SDS011;10274;49.022;9.338;2023-04-16T03:15:54;6.57;;;4.87;;
20230;SDS011;10274;49.022;9.338;2023-04-16T03:18:21;5.77;;;4.67;;
20230;SDS011;10274;49.022;9.338;2023-04-16T03:20:51;6.57;;;4.57;;
20230;SDS011;10274;49.022;9.338;2023-04-16T03:23:18;7.07;;;5.40;;
20230;SDS011;10274;49.022;9.338;2023-04-16T03:25:45;6.23;;;4.37;;
20230;SDS011;10274;49.022;9.338;2023-04-16T03:28:12;5.77;;;4.53;;
20230;SDS011;10274;49.022;9.338;2023-04-16T03:30:38;7.17;;;4.93;;
20230;SDS011;10274;49.022;9.338;2023-04-16T03:33:05;6.83;;;5.33;;
20230;SDS011;10274;49.022;9.338;2023-04-16T03:35:32;6.47;;;4.43;;
20230;SDS011;10274;49.022;9.338;2023-04-16T03:38:00;8.07;;;5.43;;
20230;SDS011;10274;49.022;9.338;2023-04-16T03:40:26;5.50;;;4.20;;
20230;SDS011;10274;49.022;9.338;2023-04-16T03:42:53;6.03;;;4.87;;
20230;SDS011;10274;49.022;9.338;2023-04-16T03:45:20;7.70;;;5.50;;
20230;SDS011;10274;49.022;9.338;2023-04-16T03:47:46;7.33;;;5.73;;
20230;SDS011;10274;49.022;9.338;2023-04-16T03:50:16;7.17;;;5.07;;
20230;SDS011;10274;49.022;9.338;2023-04-16T03:52:43;7.87;;;5.43;;
20230;SDS011;10274;49.022;9.338;2023-04-16T03:55:12;7.53;;;5.33;;
20230;SDS011;10274;49.022;9.338;2023-04-16T03:57:39;7.63;;;5.40;;
20230;SDS011;10274;49.022;9.338;2023-04-16T04:00:06;9.90;;;5.63;;
20230;SDS011;10274;49.022;9.338;2023-04-16T04:02:33;10.03;;;6.27;;
20230;SDS011;10274;49.022;9.338;2023-04-16T04:05:00;8.57;;;6.03;;
20230;SDS011;10274;49.022;9.338;2023-04-16T04:07:27;8.87;;;5.50;;
20230;SDS011;10274;49.022;9.338;2023-04-16T04:09:53;7.03;;;5.33;;
20230;SDS011;10274;49.022;9.338;2023-04-16T04:12:21;8.30;;;5.03;;
20230;SDS011;10274;49.022;9.338;2023-04-16T04:14:48;8.77;;;5.90;;
20230;SDS011;10274;49.022;9.338;2023-04-16T04:17:14;7.07;;;5.57;;
20230;SDS011;10274;49.022;9.338;2023-04-16T04:19:41;7.63;;;5.30;;
20230;SDS011;10274;49.022;9.338;2023-04-16T04:22:08;7.43;;;5.40;;
20230;SDS011;10274;49.022;9.338;2023-04-16T04:24:34;8.97;;;5.70;;
20230;SDS011;10274;49.022;9.338;2023-04-16T04:27:01;7.70;;;5.63;;
20230;SDS011;10274;49.022;9.338;2023-04-16T04:29:29;8.10;;;5.63;;
20230;SDS011;10274;49.022;9.338;2023-04-16T04:31:56;7.83;;;5.67;;
20230;SDS011;10274;49.022;9.338;2023-04-16T04:34:23;8.47;;;5.93;;
20230;SDS011;10274;49.022;9.338;2023-04-16T04:36:49;8.47;;;5.40;;
20230;SDS011;10274;49.022;9.338;2023-04-16T04:39:16;9.27;;;6.03;;
20230;SDS011;10274;49.022;9.338;2023-04-16T04:41:45;9.30;;;6.33;;
20230;SDS011;10274;49.022;9.338;2023-04-16T04:44:12;8.93;;;6.77;;
20230;SDS011;10274;49.022;9.338;2023-04-16T04:46:40;10.57;;;6.07;;
20230;SDS011;10274;49.022;9.338;2023-04-16T04:49:06;7.53;;;5.40;;
20230;SDS011;10274;49.022;9.338;2023-04-16T04:51:33;10.07;;;6.23;;
20230;SDS011;10274;49.022;9.338;2023-04-16T04:54:00;10.77;;;6.70;;
20230;SDS011;10274;49.022;9.338;2023-04-16T04:56:26;10.87;;;6.60;;
20230;SDS011;10274;49.022;9.338;2023-04-16T04:58:53;8.77;;;5.63;;
20230;SDS011;10274;49.022;9.338;2023-04-16T05:01:20;9.17;;;5.87;;
20230;SDS011;10274;49.022;9.338;2023-04-16T05:03:48;9.60;;;6.77;;
20230;SDS011;10274;49.022;9.338;2023-04-16T05:06:15;12.17;;;6.57;;
20230;SDS011;10274;49.022;9.338;2023-04-16T05:08:41;8.87;;;6.57;;
20230;SDS011;10274;49.022;9.338;2023-04-16T05:11:08;7.63;;;6.00;;
20230;SDS011;10274;49.022;9.338;2023-04-16T05:13:35;8.33;;;6.20;;
20230;SDS011;10274;49.022;9.338;2023-04-16T05:16:01;7.73;;;5.60;;
20230;SDS011;10274;49.022;9.338;2023-04-16T05:18:28;7.83;;;5.63;;
20230;SDS011;10274;49.022;9.338;2023-04-16T05:20:57;7.47;;;6.13;;
20230;SDS011;10274;49.022;9.338;2023-04-16T05:23:24;6.13;;;4.70;;
20230;SDS011;10274;49.022;9.338;2023-04-16T05:25:51;10.30;;;6.37;;
20230;SDS011;10274;49.022;9.338;2023-04-16T05:28:17;8.13;;;6.20;;
20230;SDS011;10274;49.022;9.338;2023-04-16T05:30:44;9.10;;;5.53;;
20230;SDS011;10274;49.022;9.338;2023-04-16T05:33:12;6.83;;;5.57;;
20230;SDS011;10274;49.022;9.338;2023-04-16T05:35:38;7.20;;;5.57;;
20230;SDS011;10274;49.022;9.338;2023-04-16T05:38:06;8.60;;;6.20;;
20230;SDS011;10274;49.022;9.338;2023-04-16T05:40:34;8.07;;;5.53;;
20230;SDS011;10274;49.022;9.338;2023-04-16T05:43:01;11.23;;;6.47;;
20230;SDS011;10274;49.022;9.338;2023-04-16T05:47:55;9.97;;;7.37;;
20230;SDS011;10274;49.022;9.338;2023-04-16T05:50:22;9.03;;;6.30;;
20230;SDS011;10274;49.022;9.338;2023-04-16T05:52:49;9.10;;;5.73;;
20230;SDS011;10274;49.022;9.338;2023-04-16T05:55:17;8.17;;;5.70;;
20230;SDS011;10274;49.022;9.338;2023-04-16T05:57:43;9.63;;;6.33;;
20230;SDS011;10274;49.022;9.338;2023-04-16T06:00:10;8.93;;;6.80;;
20230;SDS011;10274;49.022;9.338;2023-04-16T06:02:37;9.53;;;6.83;;
20230;SDS011;10274;49.022;9.338;2023-04-16T06:05:04;9.27;;;6.70;;
20230;SDS011;10274;49.022;9.338;2023-04-16T06:07:31;9.57;;;6.53;;
20230;SDS011;10274;49.022;9.338;2023-04-16T06:09:58;9.83;;;6.80;;
20230;SDS011;10274;49.022;9.338;2023-04-16T06:12:26;9.93;;;7.07;;
20230;SDS011;10274;49.022;9.338;2023-04-16T06:14:53;8.53;;;6.57;;
20230;SDS011;10274;49.022;9.338;2023-04-16T06:17:20;9.37;;;6.77;;
20230;SDS011;10274;49.022;9.338;2023-04-16T06:19:46;11.40;;;7.07;;
20230;SDS011;10274;49.022;9.338;2023-04-16T06:22:13;10.70;;;7.10;;
20230;SDS011;10274;49.022;9.338;2023-04-16T06:24:40;11.90;;;7.43;;
20230;SDS011;10274;49.022;9.338;2023-04-16T06:27:07;10.63;;;7.07;;
20230;SDS011;10274;49.022;9.338;2023-04-16T06:29:35;9.13;;;6.40;;
20230;SDS011;10274;49.022;9.338;2023-04-16T06:32:01;9.83;;;6.83;;
20230;SDS011;10274;49.022;9.338;2023-04-16T06:34:28;10.97;;;6.57;;
20230;SDS011;10274;49.022;9.338;2023-04-16T06:36:55;10.70;;;6.77;;
20230;SDS011;10274;49.022;9.338;2023-04-16T06:39:22;10.17;;;7.10;;
20230;SDS011;10274;49.022;9.338;2023-04-16T06:41:49;10.83;;;6.60;;
20230;SDS011;10274;49.022;9.338;2023-04-16T06:44:16;10.47;;;6.70;;
20230;SDS011;10274;49.022;9.338;2023-04-16T06:46:44;12.23;;;7.23;;
20230;SDS011;10274;49.022;9.338;2023-04-16T06:49:11;10.57;;;7.83;;
20230;SDS011;10274;49.022;9.338;2023-04-16T06:51:37;11.77;;;7.13;;
20230;SDS011;10274;49.022;9.338;2023-04-16T06:54:04;11.70;;;7.53;;
20230;SDS011;10274;49.022;9.338;2023-04-16T06:56:30;12.70;;;7.63;;
20230;SDS011;10274;49.022;9.338;2023-04-16T06:58:57;8.20;;;6.67;;
20230;SDS011;10274;49.022;9.338;2023-04-16T07:01:25;9.57;;;7.03;;
20230;SDS011;10274;49.022;9.338;2023-04-16T07:03:53;10.97;;;7.13;;
20230;SDS011;10274;49.022;9.338;2023-04-16T07:06:20;11.33;;;7.13;;
20230;SDS011;10274;49.022;9.338;2023-04-16T07:08:46;10.77;;;7.40;;
20230;SDS011;10274;49.022;9.338;2023-04-16T07:11:13;13.33;;;7.77;;
20230;SDS011;10274;49.022;9.338;2023-04-16T07:13:40;10.87;;;7.43;;
20230;SDS011;10274;49.022;9.338;2023-04-16T07:16:06;9.23;;;7.17;;
20230;SDS011;10274;49.022;9.338;2023-04-16T07:18:33;11.13;;;7.83;;
20230;SDS011;10274;49.022;9.338;2023-04-16T07:21:01;11.37;;;7.60;;
20230;SDS011;10274;49.022;9.338;2023-04-16T07:23:28;10.67;;;7.73;;
20230;SDS011;10274;49.022;9.338;2023-04-16T07:25:56;10.67;;;7.23;;
20230;SDS011;10274;49.022;9.338;2023-04-16T07:28:22;10.40;;;7.03;;
20230;SDS011;10274;49.022;9.338;2023-04-16T07:30:49;11.10;;;7.37;;
20230;SDS011;10274;49.022;9.338;2023-04-16T07:33:16;11.17;;;7.57;;
20230;SDS011;10274;49.022;9.338;2023-04-16T07:35:43;11.80;;;7.53;;
20230;SDS011;10274;49.022;9.338;2023-04-16T07:38:11;10.63;;;7.20;;
20230;SDS011;10274;49.022;9.338;2023-04-16T07:40:38;10.90;;;7.77;;
20230;SDS011;10274;49.022;9.338;2023-04-16T07:43:05;11.53;;;7.40;;
20230;SDS011;10274;49.022;9.338;2023-04-16T07:45:32;13.03;;;8.43;;
20230;SDS011;10274;49.022;9.338;2023-04-16T07:47:58;10.47;;;7.47;;
20230;SDS011;10274;49.022;9.338;2023-04-16T07:50:25;10.67;;;7.23;;
20230;SDS011;10274;49.022;9.338;2023-04-16T07:52:52;11.33;;;7.20;;
20230;SDS011;10274;49.022;9.338;2023-04-16T07:55:20;10.77;;;7.33;;
20230;SDS011;10274;49.022;9.338;2023-04-16T07:57:47;10.40;;;7.13;;
20230;SDS011;10274;49.022;9.338;2023-04-16T08:00:14;11.23;;;7.83;;
20230;SDS011;10274;49.022;9.338;2023-04-16T08:02:41;9.97;;;6.37;;
20230;SDS011;10274;49.022;9.338;2023-04-16T08:05:08;9.37;;;7.13;;
20230;SDS011;10274;49.022;9.338;2023-04-16T08:07:36;9.73;;;7.30;;
20230;SDS011;10274;49.022;9.338;2023-04-16T08:10:03;8.97;;;6.57;;
20230;SDS011;10274;49.022;9.338;2023-04-16T08:12:32;13.20;;;7.17;;
20230;SDS011;10274;49.022;9.338;2023-04-16T08:15:00;8.43;;;6.13;;
20230;SDS011;10274;49.022;9.338;2023-04-16T08:17:27;8.63;;;5.63;;
20230;SDS011;10274;49.022;9.338;2023-04-16T08:19:54;10.47;;;6.17;;
20230;SDS011;10274;49.022;9.338;2023-04-16T08:22:21;9.40;;;6.47;;
20230;SDS011;10274;49.022;9.338;2023-04-16T08:24:47;9.73;;;5.93;;
20230;SDS011;10274;49.022;9.338;2023-04-16T08:27:14;10.47;;;7.03;;
20230;SDS011;10274;49.022;9.338;2023-04-16T08:29:42;8.77;;;6.50;;
20230;SDS011;10274;49.022;9.338;2023-04-16T08:32:09;9.17;;;6.20;;
20230;SDS011;10274;49.022;9.338;2023-04-16T08:34:36;8.37;;;5.57;;
20230;SDS011;10274;49.022;9.338;2023-04-16T08:37:02;10.10;;;6.07;;
20230;SDS011;10274;49.022;9.338;2023-04-16T08:39:29;7.90;;;5.70;;
20230;SDS011;10274;49.022;9.338;2023-04-16T08:41:56;10.00;;;6.20;;
20230;SDS011;10274;49.022;9.338;2023-04-16T08:44:24;7.13;;;5.13;;
20230;SDS011;10274;49.022;9.338;2023-04-16T08:46:54;7.97;;;5.90;;
20230;SDS011;10274;49.022;9.338;2023-04-16T08:49:22;8.47;;;5.70;;
20230;SDS011;10274;49.022;9.338;2023-04-16T08:51:50;8.43;;;5.90;;
20230;SDS011;10274;49.022;9.338;2023-04-16T08:54:20;9.23;;;6.33;;
20230;SDS011;10274;49.022;9.338;2023-04-16T08:56:56;7.17;;;5.37;;
20230;SDS011;10274;49.022;9.338;2023-04-16T08:59:23;7.23;;;5.10;;
20230;SDS011;10274;49.022;9.338;2023-04-16T09:01:50;6.47;;;5.33;;
20230;SDS011;10274;49.022;9.338;2023-04-16T09:04:20;7.43;;;5.70;;
20230;SDS011;10274;49.022;9.338;2023-04-16T09:06:47;7.47;;;5.63;;
20230;SDS011;10274;49.022;9.338;2023-04-16T09:09:15;8.67;;;5.00;;
20230;SDS011;10274;49.022;9.338;2023-04-16T09:11:42;6.33;;;4.73;;
20230;SDS011;10274;49.022;9.338;2023-04-16T09:14:09;7.67;;;5.57;;
20230;SDS011;10274;49.022;9.338;2023-04-16T09:16:37;7.33;;;5.67;;
20230;SDS011;10274;49.022;9.338;2023-04-16T09:19:04;10.30;;;5.63;;
20230;SDS011;10274;49.022;9.338;2023-04-16T09:21:32;6.63;;;5.03;;
20230;SDS011;10274;49.022;9.338;2023-04-16T09:23:59;8.27;;;6.00;;
20230;SDS011;10274;49.022;9.338;2023-04-16T09:26:27;9.37;;;5.40;;
20230;SDS011;10274;49.022;9.338;2023-04-16T09:28:53;8.73;;;6.20;;
20230;SDS011;10274;49.022;9.338;2023-04-16T09:31:20;8.30;;;5.40;;
20230;SDS011;10274;49.022;9.338;2023-04-16T09:33:59;8.50;;;5.83;;
20230;SDS011;10274;49.022;9.338;2023-04-16T09:36:27;9.23;;;6.27;;
20230;SDS011;10274;49.022;9.338;2023-04-16T09:38:56;7.07;;;5.77;;
20230;SDS011;10274;49.022;9.338;2023-04-16T09:41:23;8.50;;;5.90;;
20230;SDS011;10274;49.022;9.338;2023-04-16T09:43:55;7.83;;;6.13;;
20230;SDS011;10274;49.022;9.338;2023-04-16T09:46:23;7.83;;;5.90;;
20230;SDS011;10274;49.022;9.338;2023-04-16T09:48:54;7.83;;;6.10;;
20230;SDS011;10274;49.022;9.338;2023-04-16T09:51:21;7.43;;;5.57;;
20230;SDS011;10274;49.022;9.338;2023-04-16T09:53:50;7.37;;;6.03;;
20230;SDS011;10274;49.022;9.338;2023-04-16T09:56:19;11.53;;;6.87;;
20230;SDS011;10274;49.022;9.338;2023-04-16T09:58:49;9.47;;;6.53;;
20230;SDS011;10274;49.022;9.338;2023-04-16T10:01:21;10.10;;;6.73;;
20230;SDS011;10274;49.022;9.338;2023-04-16T10:03:48;9.20;;;6.83;;
20230;SDS011;10274;49.022;9.338;2023-04-16T10:06:16;11.90;;;7.60;;
20230;SDS011;10274;49.022;9.338;2023-04-16T10:08:45;8.77;;;5.70;;
20230;SDS011;10274;49.022;9.338;2023-04-16T10:11:13;7.93;;;5.83;;
20230;SDS011;10274;49.022;9.338;2023-04-16T10:13:41;9.93;;;6.23;;
20230;SDS011;10274;49.022;9.338;2023-04-16T10:16:08;11.07;;;6.53;;
20230;SDS011;10274;49.022;9.338;2023-04-16T10:18:35;10.57;;;6.77;;
20230;SDS011;10274;49.022;9.338;2023-04-16T10:21:02;9.17;;;5.87;;
20230;SDS011;10274;49.022;9.338;2023-04-16T10:23:29;8.90;;;6.10;;
20230;SDS011;10274;49.022;9.338;2023-04-16T10:25:57;7.83;;;5.53;;
20230;SDS011;10274;49.022;9.338;2023-04-16T10:28:24;7.77;;;5.27;;
20230;SDS011;10274;49.022;9.338;2023-04-16T10:30:54;8.63;;;5.57;;
20230;SDS011;10274;49.022;9.338;2023-04-16T10:33:23;10.77;;;7.03;;
20230;SDS011;10274;49.022;9.338;2023-04-16T10:36:06;9.57;;;6.23;;
20230;SDS011;10274;49.022;9.338;2023-04-16T10:38:36;8.40;;;5.97;;
20230;SDS011;10274;49.022;9.338;2023-04-16T10:41:04;9.27;;;6.10;;
20230;SDS011;10274;49.022;9.338;2023-04-16T10:43:32;8.27;;;6.00;;
20230;SDS011;10274;49.022;9.338;2023-04-16T10:46:18;10.60;;;6.23;;
20230;SDS011;10274;49.022;9.338;2023-04-16T10:48:45;8.53;;;5.67;;
20230;SDS011;10274;49.022;9.338;2023-04-16T10:51:22;11.70;;;6.73;;
20230;SDS011;10274;49.022;9.338;2023-04-16T10:53:52;7.60;;;5.87;;
20230;SDS011;10274;49.022;9.338;2023-04-16T10:56:23;9.60;;;5.63;;
20230;SDS011;10274;49.022;9.338;2023-04-16T10:58:50;11.53;;;6.50;;
20230;SDS011;10274;49.022;9.338;2023-04-16T11:01:25;10.20;;;6.20;;
20230;SDS011;10274;49.022;9.338;2023-04-16T11:03:55;8.73;;;6.67;;
20230;SDS011;10274;49.022;9.338;2023-04-16T11:06:23;12.30;;;6.53;;
20230;SDS011;10274;49.022;9.338;2023-04-16T11:08:51;9.70;;;6.13;;
20230;SDS011;10274;49.022;9.338;2023-04-16T11:11:19;11.03;;;6.60;;
20230;SDS011;10274;49.022;9.338;2023-04-16T11:13:46;11.53;;;6.50;;
20230;SDS011;10274;49.022;9.338;2023-04-16T11:16:13;11.03;;;6.90;;
20230;SDS011;10274;49.022;9.338;2023-04-16T11:18:43;12.53;;;6.40;;
20230;SDS011;10274;49.022;9.338;2023-04-16T11:21:11;10.47;;;6.70;;
20230;SDS011;10274;49.022;9.338;2023-04-16T11:23:44;7.60;;;5.53;;
20230;SDS011;10274;49.022;9.338;2023-04-16T11:26:18;9.23;;;5.60;;
20230;SDS011;10274;49.022;9.338;2023-04-16T11:28:46;9.33;;;5.13;;
20230;SDS011;10274;49.022;9.338;2023-04-16T11:31:13;6.93;;;4.97;;
20230;SDS011;10274;49.022;9.338;2023-04-16T11:33:39;8.67;;;5.13;;
20230;SDS011;10274;49.022;9.338;2023-04-16T11:36:09;10.57;;;6.43;;
20230;SDS011;10274;49.022;9.338;2023-04-16T11:38:36;7.53;;;4.77;;
20230;SDS011;10274;49.022;9.338;2023-04-16T11:41:05;7.67;;;4.63;;
20230;SDS011;10274;49.022;9.338;2023-04-16T11:43:32;7.57;;;4.77;;
20230;SDS011;10274;49.022;9.338;2023-04-16T11:45:59;8.67;;;5.27;;
20230;SDS011;10274;49.022;9.338;2023-04-16T11:51:13;6.33;;;3.93;;
20230;SDS011;10274;49.022;9.338;2023-04-16T11:53:44;6.73;;;4.10;;
20230;SDS011;10274;49.022;9.338;2023-04-16T11:56:12;7.70;;;4.03;;
20230;SDS011;10274;49.022;9.338;2023-04-16T11:58:39;9.17;;;3.63;;
20230;SDS011;10274;49.022;9.338;2023-04-16T12:01:06;5.30;;;3.40;;
20230;SDS011;10274;49.022;9.338;2023-04-16T12:03:40;5.73;;;3.57;;
20230;SDS011;10274;49.022;9.338;2023-04-16T12:06:11;4.77;;;3.23;;
20230;SDS011;10274;49.022;9.338;2023-04-16T12:08:39;6.60;;;3.77;;
20230;SDS011;10274;49.022;9.338;2023-04-16T12:11:06;4.47;;;2.97;;
20230;SDS011;10274;49.022;9.338;2023-04-16T12:13:32;4.03;;;2.90;;
20230;SDS011;10274;49.022;9.338;2023-04-16T12:16:11;6.30;;;3.47;;
20230;SDS011;10274;49.022;9.338;2023-04-16T12:18:57;4.27;;;3.27;;
20230;SDS011;10274;49.022;9.338;2023-04-16T12:21:26;6.03;;;3.50;;
20230;SDS011;10274;49.022;9.338;2023-04-16T12:24:02;5.43;;;3.57;;
20230;SDS011;10274;49.022;9.338;2023-04-16T12:26:34;6.83;;;3.50;;
20230;SDS011;10274;49.022;9.338;2023-04-16T12:29:12;3.33;;;3.03;;
20230;SDS011;10274;49.022;9.338;2023-04-16T12:31:40;3.37;;;2.90;;
20230;SDS011;10274;49.022;9.338;2023-04-16T12:34:07;3.53;;;2.63;;
20230;SDS011;10274;49.022;9.338;2023-04-16T12:36:35;5.77;;;3.17;;
20230;SDS011;10274;49.022;9.338;2023-04-16T12:39:02;4.33;;;2.90;;
20230;SDS011;10274;49.022;9.338;2023-04-16T12:41:29;4.63;;;3.10;;
20230;SDS011;10274;49.022;9.338;2023-04-16T12:44:02;4.33;;;2.80;;
20230;SDS011;10274;49.022;9.338;2023-04-16T12:46:33;3.83;;;2.90;;
20230;SDS011;10274;49.022;9.338;2023-04-16T12:49:00;4.23;;;3.37;;
20230;SDS011;10274;49.022;9.338;2023-04-16T12:51:27;3.73;;;2.50;;
20230;SDS011;10274;49.022;9.338;2023-04-16T12:53:55;3.87;;;2.53;;
20230;SDS011;10274;49.022;9.338;2023-04-16T12:56:21;4.20;;;2.40;;
20230;SDS011;10274;49.022;9.338;2023-04-16T12:58:48;4.47;;;2.70;;
20230;SDS011;10274;49.022;9.338;2023-04-16T13:01:16;4.60;;;3.07;;
20230;SDS011;10274;49.022;9.338;2023-04-16T13:03:43;3.43;;;2.60;;
20230;SDS011;10274;49.022;9.338;2023-04-16T13:06:09;4.30;;;2.80;;
20230;SDS011;10274;49.022;9.338;2023-04-16T13:08:37;3.60;;;2.70;;
20230;SDS011;10274;49.022;9.338;2023-04-16T13:11:05;2.80;;;2.30;;
20230;SDS011;10274;49.022;9.338;2023-04-16T13:13:32;4.77;;;2.83;;
20230;SDS011;10274;49.022;9.338;2023-04-16T13:15:59;7.40;;;2.80;;
20230;SDS011;10274;49.022;9.338;2023-04-16T13:18:28;4.30;;;2.97;;
20230;SDS011;10274;49.022;9.338;2023-04-16T13:20:54;4.43;;;2.93;;
20230;SDS011;10274;49.022;9.338;2023-04-16T13:23:21;4.07;;;3.03;;
20230;SDS011;10274;49.022;9.338;2023-04-16T13:25:48;5.57;;;3.13;;
20230;SDS011;10274;49.022;9.338;2023-04-16T13:28:16;4.23;;;3.13;;
20230;SDS011;10274;49.022;9.338;2023-04-16T13:30:42;4.13;;;3.00;;
20230;SDS011;10274;49.022;9.338;2023-04-16T13:33:10;4.67;;;3.00;;
20230;SDS011;10274;49.022;9.338;2023-04-16T13:35:37;4.20;;;3.27;;
20230;SDS011;10274;49.022;9.338;2023-04-16T13:38:04;4.17;;;2.90;;
20230;SDS011;10274;49.022;9.338;2023-04-16T13:40:30;3.83;;;3.07;;
20230;SDS011;10274;49.022;9.338;2023-04-16T13:42:57;4.60;;;3.13;;
20230;SDS011;10274;49.022;9.338;2023-04-16T13:45:25;4.90;;;3.73;;
20230;SDS011;10274;49.022;9.338;2023-04-16T13:47:53;4.80;;;3.43;;
20230;SDS011;10274;49.022;9.338;2023-04-16T13:50:19;4.00;;;3.13;;
20230;SDS011;10274;49.022;9.338;2023-04-16T13:52:46;6.10;;;3.87;;
20230;SDS011;10274;49.022;9.338;2023-04-16T13:55:13;5.30;;;3.90;;
20230;SDS011;10274;49.022;9.338;2023-04-16T13:57:43;4.13;;;3.23;;
20230;SDS011;10274;49.022;9.338;2023-04-16T14:00:10;5.27;;;3.33;;
20230;SDS011;10274;49.022;9.338;2023-04-16T14:02:39;5.93;;;4.23;;
20230;SDS011;10274;49.022;9.338;2023-04-16T14:05:07;5.17;;;3.73;;
20230;SDS011;10274;49.022;9.338;2023-04-16T14:07:34;6.20;;;4.10;;
20230;SDS011;10274;49.022;9.338;2023-04-16T14:10:02;5.40;;;3.87;;
20230;SDS011;10274;49.022;9.338;2023-04-16T14:12:29;6.37;;;4.37;;
20230;SDS011;10274;49.022;9.338;2023-04-16T14:14:56;7.30;;;4.23;;
20230;SDS011;10274;49.022;9.338;2023-04-16T14:17:23;4.47;;;3.50;;
20230;SDS011;10274;49.022;9.338;2023-04-16T14:19:51;5.03;;;4.03;;
20230;SDS011;10274;49.022;9.338;2023-04-16T14:22:18;7.30;;;4.20;;
20230;SDS011;10274;49.022;9.338;2023-04-16T14:24:44;3.93;;;3.47;;
20230;SDS011;10274;49.022;9.338;2023-04-16T14:27:11;5.40;;;4.07;;
20230;SDS011;10274;49.022;9.338;2023-04-16T14:29:38;5.30;;;3.67;;
20230;SDS011;10274;49.022;9.338;2023-04-16T14:32:05;6.07;;;4.33;;
20230;SDS011;10274;49.022;9.338;2023-04-16T14:34:32;7.07;;;4.73;;
20230;SDS011;10274;49.022;9.338;2023-04-16T14:37:00;6.03;;;4.50;;
20230;SDS011;10274;49.022;9.338;2023-04-16T14:39:28;6.63;;;4.27;;
20230;SDS011;10274;49.022;9.338;2023-04-16T14:41:55;6.03;;;4.47;;
20230;SDS011;10274;49.022;9.338;2023-04-16T14:44:21;6.97;;;4.40;;
20230;SDS011;10274;49.022;9.338;2023-04-16T14:46:48;6.30;;;4.50;;
20230;SDS011;10274;49.022;9.338;2023-04-16T14:49:15;4.80;;;3.87;;
20230;SDS011;10274;49.022;9.338;2023-04-16T14:51:42;6.93;;;4.57;;
20230;SDS011;10274;49.022;9.338;2023-04-16T14:54:12;6.67;;;4.67;;